createdAt,value
2017-10-04T00:02:08.730Z,3.00
2017-10-04T00:04:36.478Z,2.80
2017-10-04T00:07:04.123Z,3.22
2017-10-04T00:09:31.779Z,3.75
2017-10-04T00:11:59.512Z,3.12
2017-10-04T00:14:27.162Z,2.60
2017-10-04T00:16:54.806Z,2.47
2017-10-04T00:19:22.587Z,3.00
2017-10-04T00:21:50.710Z,3.00
2017-10-04T00:24:18.363Z,2.70
2017-10-04T00:26:46.055Z,2.53
2017-10-04T00:29:13.704Z,2.42
2017-10-04T00:31:41.392Z,2.10
2017-10-04T00:34:09.187Z,2.87
2017-10-04T00:36:36.885Z,3.33
2017-10-04T00:39:04.566Z,2.67
2017-10-04T00:41:32.391Z,2.60
2017-10-04T00:44:00.132Z,3.00
2017-10-04T00:46:27.807Z,2.83
2017-10-04T00:48:55.934Z,2.97
2017-10-04T00:51:23.678Z,2.75
2017-10-04T00:53:51.430Z,2.90
2017-10-04T00:56:19.276Z,2.75
2017-10-04T00:58:46.990Z,3.27
2017-10-04T01:01:14.770Z,3.40
2017-10-04T01:03:42.607Z,3.03
2017-10-04T01:06:10.283Z,2.87
2017-10-04T01:08:38.343Z,2.58
2017-10-04T01:11:06.474Z,3.12
2017-10-04T01:13:34.156Z,3.60
2017-10-04T01:16:01.836Z,2.90
2017-10-04T01:18:29.706Z,2.55
2017-10-04T01:20:57.463Z,2.33
2017-10-04T01:23:25.117Z,2.37
2017-10-04T01:25:52.839Z,2.92
2017-10-04T01:28:20.479Z,3.10
2017-10-04T01:30:48.148Z,2.65
2017-10-04T01:33:15.895Z,2.10
2017-10-04T01:35:43.546Z,2.50
2017-10-04T01:38:11.203Z,2.50
2017-10-04T01:40:39.383Z,2.60
2017-10-04T01:43:07.034Z,2.20
2017-10-04T01:45:34.740Z,3.53
2017-10-04T01:48:02.467Z,2.33
2017-10-04T01:50:30.114Z,3.00
2017-10-04T01:52:57.763Z,3.00
2017-10-04T01:55:25.623Z,3.08
2017-10-04T01:57:53.269Z,2.70
2017-10-04T02:00:21.014Z,2.92
2017-10-04T02:02:48.859Z,2.70
2017-10-04T02:05:16.503Z,3.30
2017-10-04T02:07:44.262Z,2.65
2017-10-04T02:10:11.961Z,2.35
2017-10-04T02:12:39.635Z,2.70
2017-10-04T02:15:07.304Z,2.47
2017-10-04T02:17:34.995Z,2.87
2017-10-04T02:20:02.686Z,3.30
2017-10-04T02:22:30.335Z,3.22
2017-10-04T02:24:58.430Z,2.67
2017-10-04T02:27:26.083Z,2.70
2017-10-04T02:29:53.723Z,2.20
2017-10-04T02:32:21.505Z,2.55
2017-10-04T02:34:49.143Z,2.65
2017-10-04T02:37:16.779Z,2.90
2017-10-04T02:39:44.549Z,2.45
2017-10-04T02:42:12.607Z,2.50
2017-10-04T02:44:40.349Z,2.80
2017-10-04T02:47:08.098Z,2.90
2017-10-04T02:49:35.844Z,2.40
2017-10-04T02:52:03.492Z,2.70
2017-10-04T02:54:31.271Z,2.97
2017-10-04T02:56:59.312Z,3.03
2017-10-04T02:59:27.345Z,2.72
2017-10-04T03:01:55.095Z,2.90
2017-10-04T03:04:22.743Z,2.50
2017-10-04T03:06:50.387Z,2.87
2017-10-04T03:09:18.134Z,2.55
2017-10-04T03:11:45.795Z,2.83
2017-10-04T03:14:13.838Z,3.40
2017-10-04T03:16:41.579Z,2.35
2017-10-04T03:19:09.325Z,2.85
2017-10-04T03:21:37.072Z,1.80
2017-10-04T03:24:04.924Z,2.55
2017-10-04T03:26:32.570Z,2.87
2017-10-04T03:29:00.314Z,3.37
2017-10-04T03:31:28.163Z,2.87
2017-10-04T03:33:55.812Z,4.87
2017-10-04T03:36:23.464Z,3.30
2017-10-04T03:38:51.204Z,3.42
2017-10-04T03:41:18.951Z,2.87
2017-10-04T03:43:46.697Z,2.70
2017-10-04T03:46:14.490Z,2.83
2017-10-04T03:48:42.192Z,3.17
2017-10-04T03:51:09.942Z,2.62
2017-10-04T03:53:37.686Z,2.85
2017-10-04T03:56:05.433Z,3.65
2017-10-04T03:58:33.180Z,2.40
2017-10-04T04:01:00.875Z,3.60
2017-10-04T04:03:28.526Z,3.28
2017-10-04T04:05:56.214Z,4.00
2017-10-04T04:08:24.019Z,3.30
2017-10-04T04:10:51.715Z,2.50
2017-10-04T04:13:19.464Z,2.72
2017-10-04T04:15:47.209Z,2.92
2017-10-04T04:18:14.853Z,3.12
2017-10-04T04:20:42.495Z,3.40
2017-10-04T04:23:10.187Z,2.80
2017-10-04T04:25:37.891Z,2.72
2017-10-04T04:28:05.531Z,2.50
2017-10-04T04:30:33.282Z,2.90
2017-10-04T04:33:00.935Z,2.90
2017-10-04T04:35:28.674Z,2.65
2017-10-04T04:38:08.402Z,2.92
2017-10-04T04:40:36.150Z,3.40
2017-10-04T04:43:03.795Z,3.12
2017-10-04T04:45:31.582Z,3.55
2017-10-04T04:47:59.231Z,2.40
2017-10-04T04:50:26.934Z,3.30
2017-10-04T04:52:54.619Z,3.65
2017-10-04T04:55:22.739Z,2.75
2017-10-04T04:57:50.486Z,2.30
2017-10-04T05:00:18.218Z,2.40
2017-10-04T05:02:45.876Z,2.22
2017-10-04T05:05:13.624Z,2.92
2017-10-04T05:07:41.322Z,2.33
2017-10-04T05:10:08.962Z,2.90
2017-10-04T05:12:36.601Z,2.95
2017-10-04T05:15:04.408Z,3.28
2017-10-04T05:17:32.060Z,2.67
2017-10-04T05:19:59.800Z,3.37
2017-10-04T05:22:27.548Z,3.10
2017-10-04T05:24:55.297Z,3.22
2017-10-04T05:27:23.045Z,3.25
2017-10-04T05:29:50.730Z,3.12
2017-10-04T05:32:18.772Z,3.35
2017-10-04T05:34:46.808Z,3.35
2017-10-04T05:37:14.547Z,2.60
2017-10-04T05:39:42.193Z,3.10
2017-10-04T05:42:09.852Z,3.42
2017-10-04T05:44:37.952Z,3.00
2017-10-04T05:47:05.599Z,2.75
2017-10-04T05:49:33.560Z,2.70
2017-10-04T05:52:01.320Z,3.30
2017-10-04T05:54:28.967Z,2.97
2017-10-04T05:56:56.619Z,3.33
2017-10-04T05:59:24.321Z,4.70
2017-10-04T06:01:51.965Z,3.22
2017-10-04T06:04:19.628Z,3.80
2017-10-04T06:06:47.335Z,2.90
2017-10-04T06:09:14.984Z,2.90
2017-10-04T06:11:43.023Z,3.20
2017-10-04T06:14:10.742Z,3.47
2017-10-04T06:16:38.389Z,3.33
2017-10-04T06:19:06.148Z,3.50
2017-10-04T06:21:33.839Z,3.22
2017-10-04T06:24:01.478Z,3.08
2017-10-04T06:26:29.123Z,3.17
2017-10-04T06:28:57.302Z,2.50
2017-10-04T06:31:25.007Z,3.10
2017-10-04T06:33:52.687Z,3.05
2017-10-04T06:36:20.410Z,2.55
2017-10-04T06:38:48.538Z,3.08
2017-10-04T06:41:16.241Z,2.85
2017-10-04T06:43:43.958Z,2.70
2017-10-04T06:46:12.007Z,2.75
2017-10-04T06:48:40.047Z,3.12
2017-10-04T06:51:08.515Z,3.40
2017-10-04T06:53:36.164Z,3.28
2017-10-04T06:56:03.811Z,4.70
2017-10-04T06:58:31.949Z,3.45
2017-10-04T07:00:59.696Z,3.42
2017-10-04T07:03:27.359Z,3.12
2017-10-04T07:05:55.099Z,4.05
2017-10-04T07:08:22.766Z,3.17
2017-10-04T07:10:50.858Z,3.50
2017-10-04T07:13:18.587Z,3.78
2017-10-04T07:15:46.296Z,3.40
2017-10-04T07:18:13.970Z,4.78
2017-10-04T07:20:41.778Z,5.70
2017-10-04T07:23:09.426Z,3.97
2017-10-04T07:25:37.171Z,3.83
2017-10-04T07:28:05.000Z,3.95
2017-10-04T07:30:32.679Z,5.12
2017-10-04T07:33:00.412Z,4.50
2017-10-04T07:35:28.126Z,3.97
2017-10-04T07:37:55.771Z,4.50
2017-10-04T07:40:23.451Z,3.77
2017-10-04T07:42:51.150Z,4.20
2017-10-04T07:45:18.807Z,4.23
2017-10-04T07:47:46.459Z,3.40
2017-10-04T07:50:14.171Z,3.93
2017-10-04T07:52:42.227Z,3.90
2017-10-04T07:55:09.883Z,4.07
2017-10-04T07:57:37.599Z,3.73
2017-10-04T08:00:05.327Z,3.87
2017-10-04T08:02:32.978Z,3.70
2017-10-04T08:05:00.734Z,3.60
2017-10-04T08:07:28.383Z,2.80
2017-10-04T08:09:56.030Z,3.67
2017-10-04T08:12:23.739Z,4.37
2017-10-04T08:14:51.396Z,3.80
2017-10-04T08:17:19.052Z,3.00
2017-10-04T08:19:46.771Z,3.10
2017-10-04T08:22:14.423Z,3.17
2017-10-04T08:24:42.066Z,3.00
2017-10-04T08:27:09.790Z,3.10
2017-10-04T08:29:37.439Z,3.30
2017-10-04T08:32:05.093Z,3.50
2017-10-04T08:34:32.867Z,3.40
2017-10-04T08:37:00.518Z,3.80
2017-10-04T08:39:28.188Z,3.70
2017-10-04T08:41:56.292Z,2.40
2017-10-04T08:44:23.938Z,2.63
2017-10-04T08:46:52.466Z,3.30
2017-10-04T08:49:20.575Z,3.20
2017-10-04T08:51:48.227Z,3.53
2017-10-04T08:54:15.883Z,3.40
2017-10-04T08:56:43.724Z,3.30
2017-10-04T08:59:11.379Z,3.70
2017-10-04T09:01:39.032Z,3.70
2017-10-04T09:04:06.979Z,2.77
2017-10-04T09:06:34.634Z,2.67
2017-10-04T09:09:02.765Z,3.50
2017-10-04T09:11:30.576Z,3.00
2017-10-04T09:13:58.222Z,2.83
2017-10-04T09:16:25.870Z,2.80
2017-10-04T09:18:53.575Z,3.60
2017-10-04T09:21:21.650Z,2.60
2017-10-04T09:23:49.302Z,3.70
2017-10-04T09:26:17.003Z,2.47
2017-10-04T09:28:44.660Z,3.63
2017-10-04T09:31:12.312Z,2.70
2017-10-04T09:33:40.407Z,4.00
2017-10-04T09:36:08.090Z,2.90
2017-10-04T09:38:35.837Z,2.67
2017-10-04T09:41:03.584Z,2.20
2017-10-04T09:43:31.223Z,1.90
2017-10-04T09:45:58.930Z,2.93
2017-10-04T09:48:26.682Z,2.63
2017-10-04T09:50:54.336Z,2.50
2017-10-04T09:53:22.000Z,2.33
2017-10-04T09:55:49.815Z,2.40
2017-10-04T09:58:17.510Z,1.90
2017-10-04T10:00:45.159Z,2.43
2017-10-04T10:03:12.855Z,2.00
2017-10-04T10:05:40.546Z,2.90
2017-10-04T10:08:08.298Z,2.63
2017-10-04T10:10:35.986Z,2.63
2017-10-04T10:13:03.689Z,1.93
2017-10-04T10:15:31.360Z,2.50
2017-10-04T10:17:59.478Z,1.90
2017-10-04T10:20:27.233Z,1.97
2017-10-04T10:22:54.983Z,2.60
2017-10-04T10:25:22.733Z,2.17
2017-10-04T10:27:50.391Z,2.00
2017-10-04T10:30:18.043Z,2.50
2017-10-04T10:32:46.178Z,1.80
2017-10-04T10:35:13.924Z,1.80
2017-10-04T10:37:41.571Z,1.80
2017-10-04T10:40:09.377Z,1.83
2017-10-04T10:42:37.064Z,2.13
2017-10-04T10:45:04.726Z,1.70
2017-10-04T10:47:32.443Z,1.73
2017-10-04T10:50:00.099Z,1.70
2017-10-04T10:52:27.749Z,1.60
2017-10-04T10:54:55.451Z,1.30
2017-10-04T10:57:23.099Z,1.80
2017-10-04T10:59:50.743Z,1.97
2017-10-04T11:02:18.462Z,2.47
2017-10-04T11:04:46.586Z,1.43
2017-10-04T11:07:14.239Z,2.00
2017-10-04T11:09:41.930Z,1.43
2017-10-04T11:12:09.576Z,2.00
2017-10-04T11:14:37.268Z,2.10
2017-10-04T11:17:04.959Z,1.90
2017-10-04T11:19:32.660Z,1.43
2017-10-04T11:22:00.311Z,1.57
2017-10-04T11:24:28.023Z,2.07
2017-10-04T11:26:55.671Z,2.10
2017-10-04T11:29:23.328Z,2.03
2017-10-04T11:31:51.042Z,1.60
2017-10-04T11:34:18.736Z,1.40
2017-10-04T11:36:46.395Z,2.17
2017-10-04T11:39:14.099Z,1.97
2017-10-04T11:41:41.773Z,3.10
2017-10-04T11:44:09.427Z,2.20
2017-10-04T11:46:37.166Z,1.87
2017-10-04T11:49:04.924Z,1.80
2017-10-04T11:51:32.575Z,1.97
2017-10-04T11:54:00.316Z,1.83
2017-10-04T11:56:27.976Z,1.83
2017-10-04T11:58:55.712Z,2.07
2017-10-04T12:01:23.440Z,1.93
2017-10-04T12:03:51.205Z,1.77
2017-10-04T12:06:18.859Z,1.73
2017-10-04T12:08:46.572Z,1.77
2017-10-04T12:11:14.247Z,2.23
2017-10-04T12:13:41.989Z,1.77
2017-10-04T12:16:09.838Z,2.07
2017-10-04T12:18:37.491Z,1.60
2017-10-04T12:21:05.230Z,1.93
2017-10-04T12:23:33.071Z,1.80
2017-10-04T12:26:00.827Z,1.57
2017-10-04T12:28:28.492Z,1.63
2017-10-04T12:30:56.198Z,2.07
2017-10-04T12:33:23.866Z,1.77
2017-10-04T12:35:51.519Z,1.97
2017-10-04T12:38:19.243Z,1.60
2017-10-04T12:40:46.903Z,1.80
2017-10-04T12:43:14.547Z,2.10
2017-10-04T12:45:42.295Z,1.53
2017-10-04T12:48:10.043Z,2.53
2017-10-04T12:50:37.790Z,2.30
2017-10-04T12:53:05.595Z,2.23
2017-10-04T12:55:33.243Z,2.23
2017-10-04T12:58:00.929Z,1.80
2017-10-04T13:00:28.659Z,1.60
2017-10-04T13:02:56.307Z,2.07
2017-10-04T13:05:23.963Z,1.87
2017-10-04T13:07:51.671Z,3.10
2017-10-04T13:10:19.361Z,1.53
2017-10-04T13:12:47.010Z,2.50
2017-10-04T13:15:14.728Z,2.30
2017-10-04T13:17:42.371Z,2.00
2017-10-04T13:20:10.063Z,1.60
2017-10-04T13:22:37.788Z,1.53
2017-10-04T13:25:05.455Z,1.60
2017-10-04T13:27:33.693Z,2.03
2017-10-04T13:30:01.440Z,1.70
2017-10-04T13:32:29.091Z,1.93
2017-10-04T13:34:56.832Z,2.87
2017-10-04T13:37:24.549Z,2.07
2017-10-04T13:39:52.199Z,1.73
2017-10-04T13:42:19.849Z,2.10
2017-10-04T13:44:47.825Z,2.17
2017-10-04T13:47:15.571Z,2.20
2017-10-04T13:49:43.319Z,1.90
2017-10-04T13:52:11.143Z,1.80
2017-10-04T13:54:38.915Z,1.77
2017-10-04T13:57:06.663Z,1.70
2017-10-04T13:59:34.361Z,2.00
2017-10-04T14:02:01.999Z,1.83
2017-10-04T14:04:29.655Z,2.20
2017-10-04T14:06:57.342Z,2.00
2017-10-04T14:09:24.991Z,2.00
2017-10-04T14:11:52.738Z,2.07
2017-10-04T14:14:20.487Z,2.07
2017-10-04T14:16:48.235Z,1.73
2017-10-04T14:19:15.894Z,2.20
2017-10-04T14:21:43.595Z,2.10
2017-10-04T14:24:11.236Z,2.23
2017-10-04T14:26:38.879Z,2.03
2017-10-04T14:29:06.662Z,1.53
2017-10-04T14:31:34.409Z,2.20
2017-10-04T14:34:02.156Z,1.93
2017-10-04T14:36:29.904Z,1.63
2017-10-04T14:38:57.547Z,1.70
2017-10-04T14:41:25.276Z,1.97
2017-10-04T14:43:53.045Z,2.40
2017-10-04T14:46:20.795Z,2.03
2017-10-04T14:48:48.442Z,3.00
2017-10-04T14:51:16.163Z,2.00
2017-10-04T14:53:43.829Z,2.30
2017-10-04T14:56:11.479Z,2.00
2017-10-04T14:58:39.292Z,2.07
2017-10-04T15:01:06.939Z,2.43
2017-10-04T15:03:34.613Z,2.60
2017-10-04T15:06:02.319Z,2.60
2017-10-04T15:08:30.005Z,2.37
2017-10-04T15:10:57.752Z,2.43
2017-10-04T15:13:25.552Z,2.70
2017-10-04T15:15:53.199Z,1.90
2017-10-04T15:18:20.851Z,2.33
2017-10-04T15:20:48.648Z,2.93
2017-10-04T15:23:16.798Z,2.50
2017-10-04T15:25:44.450Z,2.30
2017-10-04T15:28:12.291Z,2.33
2017-10-04T15:30:39.935Z,1.90
2017-10-04T15:33:07.588Z,2.10
2017-10-04T15:35:35.288Z,2.77
2017-10-04T15:38:02.938Z,2.60
2017-10-04T15:40:30.587Z,2.83
2017-10-04T15:42:58.291Z,2.50
2017-10-04T15:45:26.343Z,1.93
2017-10-04T15:47:54.478Z,2.20
2017-10-04T15:50:22.188Z,2.13
2017-10-04T15:52:49.843Z,2.23
2017-10-04T15:55:17.617Z,2.20
2017-10-04T15:57:45.320Z,1.90
2017-10-04T16:00:13.004Z,2.50
2017-10-04T16:02:40.656Z,1.90
2017-10-04T16:05:08.384Z,2.67
2017-10-04T16:07:36.039Z,2.27
2017-10-04T16:10:03.695Z,2.07
2017-10-04T16:12:31.411Z,2.00
2017-10-04T16:14:59.081Z,2.83
2017-10-04T16:17:26.729Z,2.23
2017-10-04T16:19:54.579Z,2.13
2017-10-04T16:22:22.236Z,2.27
2017-10-04T16:24:49.884Z,2.17
2017-10-04T16:27:17.663Z,2.57
2017-10-04T16:29:45.320Z,2.03
2017-10-04T16:32:12.963Z,2.33
2017-10-04T16:34:40.684Z,2.00
2017-10-04T16:37:08.732Z,2.20
2017-10-04T16:39:36.791Z,2.70
2017-10-04T16:42:04.935Z,3.47
2017-10-04T16:44:32.877Z,2.97
2017-10-04T16:47:00.618Z,2.30
2017-10-04T16:49:28.342Z,1.83
2017-10-04T16:51:56.112Z,4.70
2017-10-04T16:54:23.864Z,3.87
2017-10-04T16:56:51.579Z,2.87
2017-10-04T16:59:19.230Z,2.70
2017-10-04T17:01:46.894Z,2.60
2017-10-04T17:04:14.748Z,2.20
2017-10-04T17:06:42.494Z,3.87
2017-10-04T17:09:10.147Z,3.40
2017-10-04T17:11:38.298Z,2.80
2017-10-04T17:14:06.043Z,2.87
2017-10-04T17:16:33.694Z,4.73
2017-10-04T17:19:01.411Z,4.10
2017-10-04T17:21:29.080Z,3.20
2017-10-04T17:23:56.828Z,3.77
2017-10-04T17:26:24.679Z,2.30
2017-10-04T17:28:52.331Z,2.50
2017-10-04T17:31:19.983Z,2.70
2017-10-04T17:33:47.717Z,3.03
2017-10-04T17:36:15.373Z,4.87
2017-10-04T17:38:43.110Z,4.20
2017-10-04T17:41:10.914Z,3.07
2017-10-04T17:43:38.567Z,2.60
2017-10-04T17:46:06.220Z,2.33
2017-10-04T17:48:33.938Z,4.00
2017-10-04T17:51:01.639Z,3.83
2017-10-04T17:53:29.389Z,3.60
2017-10-04T17:55:57.140Z,2.70
2017-10-04T17:58:24.885Z,2.90
2017-10-04T18:00:52.631Z,4.03
2017-10-04T18:03:20.335Z,5.57
2017-10-04T18:05:47.990Z,5.53
2017-10-04T18:08:15.777Z,18.07
2017-10-04T18:10:43.490Z,14.80
2017-10-04T18:13:11.139Z,3.63
2017-10-04T18:15:38.806Z,3.50
2017-10-04T18:18:06.502Z,4.30
2017-10-04T18:20:34.198Z,3.97
2017-10-04T18:23:01.857Z,4.43
2017-10-04T18:25:29.548Z,2.50
2017-10-04T18:27:57.236Z,9.27
2017-10-04T18:30:24.896Z,4.60
2017-10-04T18:32:52.631Z,4.33
2017-10-04T18:35:21.387Z,4.10
2017-10-04T18:37:49.131Z,3.50
2017-10-04T18:40:16.993Z,3.30
2017-10-04T18:42:44.647Z,3.00
2017-10-04T18:45:12.391Z,2.40
2017-10-04T18:47:40.326Z,3.43
2017-10-04T18:50:07.986Z,2.53
2017-10-04T18:52:35.655Z,3.10
2017-10-04T18:55:04.357Z,3.30
2017-10-04T18:57:32.899Z,4.17
2017-10-04T19:00:01.658Z,4.90
2017-10-04T19:02:29.358Z,4.00
2017-10-04T19:04:57.346Z,4.70
2017-10-04T19:07:26.740Z,3.80
2017-10-04T19:09:54.471Z,4.50
2017-10-04T19:12:22.220Z,5.53
2017-10-04T19:14:49.967Z,5.80
2017-10-04T19:17:17.660Z,6.10
2017-10-04T19:19:45.913Z,5.13
2017-10-04T19:22:13.567Z,2.77
2017-10-04T19:24:41.458Z,3.00
2017-10-04T19:27:09.136Z,2.10
2017-10-04T19:29:37.270Z,2.83
2017-10-04T19:32:04.972Z,4.17
2017-10-04T19:34:32.623Z,3.20
2017-10-04T19:37:00.306Z,2.90
2017-10-04T19:39:28.155Z,2.67
2017-10-04T19:41:55.992Z,3.50
2017-10-04T19:44:23.652Z,3.73
2017-10-04T19:46:51.372Z,3.93
2017-10-04T19:49:19.148Z,3.80
2017-10-04T19:51:46.894Z,3.70
2017-10-04T19:54:14.745Z,4.00
2017-10-04T19:56:42.491Z,4.30
2017-10-04T19:59:10.147Z,4.30
2017-10-04T20:01:37.851Z,4.40
2017-10-04T20:04:05.514Z,4.40
2017-10-04T20:06:33.402Z,3.83
2017-10-04T20:09:01.660Z,3.53
2017-10-04T20:11:30.491Z,4.07
2017-10-04T20:13:58.185Z,4.40
2017-10-04T20:16:26.290Z,3.30
2017-10-04T20:18:53.940Z,3.80
2017-10-04T20:21:21.607Z,3.80
2017-10-04T20:23:49.454Z,2.43
2017-10-04T20:26:17.200Z,2.30
2017-10-04T20:28:44.947Z,2.10
2017-10-04T20:31:12.794Z,2.50
2017-10-04T20:33:40.524Z,3.10
2017-10-04T20:36:08.246Z,2.27
2017-10-04T20:38:36.044Z,2.70
2017-10-04T20:41:04.057Z,3.00
2017-10-04T20:43:31.943Z,2.90
2017-10-04T20:46:00.209Z,2.83
2017-10-04T20:48:27.949Z,2.70
2017-10-04T20:50:55.595Z,3.17
2017-10-04T20:53:23.345Z,1.70
2017-10-04T20:55:51.000Z,2.70
2017-10-04T20:58:18.735Z,2.60
2017-10-04T21:00:46.482Z,2.40
2017-10-04T21:03:14.231Z,2.50
2017-10-04T21:05:41.977Z,2.57
2017-10-04T21:08:09.667Z,2.27
2017-10-04T21:10:37.327Z,3.10
2017-10-04T21:13:05.035Z,2.85
2017-10-04T21:15:33.129Z,1.83
2017-10-04T21:18:00.815Z,3.00
2017-10-04T21:20:28.463Z,1.70
2017-10-04T21:22:56.164Z,2.67
2017-10-04T21:25:23.810Z,2.07
2017-10-04T21:27:51.500Z,2.90
2017-10-04T21:30:19.219Z,2.80
2017-10-04T21:32:46.891Z,3.27
2017-10-04T21:35:14.741Z,2.60
2017-10-04T21:37:42.431Z,3.00
2017-10-04T21:40:10.084Z,2.97
2017-10-04T21:42:37.779Z,2.97
2017-10-04T21:45:05.531Z,3.20
2017-10-04T21:47:33.179Z,2.57
2017-10-04T21:50:00.823Z,2.50
2017-10-04T21:52:28.528Z,3.30
2017-10-04T21:54:56.185Z,2.80
2017-10-04T21:57:23.831Z,2.90
2017-10-04T21:59:51.601Z,2.67
2017-10-04T22:02:19.264Z,2.83
2017-10-04T22:04:47.314Z,2.10
2017-10-04T22:07:15.150Z,2.03
2017-10-04T22:09:42.797Z,2.60
2017-10-04T22:12:10.442Z,3.00
2017-10-04T22:14:38.437Z,2.50
2017-10-04T22:17:06.137Z,2.83
2017-10-04T22:19:34.095Z,2.10
2017-10-04T22:22:01.839Z,2.37
2017-10-04T22:24:29.932Z,1.93
2017-10-04T22:26:57.946Z,2.00
2017-10-04T22:29:25.651Z,2.57
2017-10-04T22:31:53.296Z,2.50
2017-10-04T22:34:20.986Z,2.77
2017-10-04T22:36:48.732Z,2.43
2017-10-04T22:39:16.377Z,1.90
2017-10-04T22:41:44.125Z,2.10
2017-10-04T22:44:11.826Z,2.00
2017-10-04T22:46:39.517Z,1.90
2017-10-04T22:49:07.159Z,1.73
2017-10-04T22:51:34.867Z,2.10
2017-10-04T22:54:02.516Z,2.00
2017-10-04T22:56:30.198Z,1.60
2017-10-04T22:58:57.944Z,2.03
2017-10-04T23:01:25.595Z,2.00
2017-10-04T23:03:53.341Z,2.20
2017-10-04T23:06:21.189Z,2.00
2017-10-04T23:08:48.936Z,1.60
2017-10-04T23:11:16.583Z,1.83
2017-10-04T23:13:44.298Z,2.10
2017-10-04T23:16:11.974Z,2.50
2017-10-04T23:18:39.680Z,2.10
2017-10-04T23:21:07.388Z,2.03
2017-10-04T23:23:35.442Z,1.90
2017-10-04T23:26:03.486Z,1.60
2017-10-04T23:28:31.241Z,1.80
2017-10-04T23:30:59.283Z,2.17
2017-10-04T23:33:26.940Z,2.00
2017-10-04T23:35:54.766Z,2.70
2017-10-04T23:38:22.419Z,2.40
2017-10-04T23:40:50.391Z,2.23
2017-10-04T23:43:18.116Z,2.40
2017-10-04T23:45:45.864Z,2.33
2017-10-04T23:48:13.611Z,2.40
2017-10-04T23:50:41.314Z,2.20
2017-10-04T23:53:08.951Z,1.70
2017-10-04T23:55:36.590Z,2.63
2017-10-04T23:58:04.391Z,2.37
